Time;durP1;ratioP1;P1;durP2;ratioP2;P2;SDS_P1;SDS_P2;PMS_P1;PMS_P2;Temp;Humidity;BMP_temperature;BMP_pressure;BME280_temperature;BME280_humidity;BME280_pressure;Samples;Min_cycle;Max_cycle;Signal;HPM_P1;HPM_P2
2023/06/11 00:03:12;;;;;;;51.50;12.27;;;19.20;99.90;;;17.66;100.00;99657.50;10339819;28;96662;-91
2023/06/11 00:08:15;;;;;;;186.38;19.33;;;19.10;99.90;;;17.62;100.00;99662.50;10328526;28;96671;-91
2023/06/11 00:13:18;;;;;;;9.30;8.40;;;19.00;99.90;;;17.55;100.00;99660.94;10345771;28;96657;-92
2023/06/11 00:18:21;;;;;;;9.77;8.77;;;19.00;99.90;;;17.54;100.00;99664.69;10355013;28;96860;-91
2023/06/11 00:23:25;;;;;;;10.65;9.25;;;19.00;99.90;;;17.49;100.00;99661.84;10343307;28;96630;-91
2023/06/11 00:28:28;;;;;;;10.40;8.98;;;19.00;99.90;;;17.46;100.00;99673.88;10352893;28;97068;-92
2023/06/11 00:33:31;;;;;;;11.82;9.32;;;18.90;99.90;;;17.42;100.00;99661.94;10390095;28;97549;-92
2023/06/11 00:38:34;;;;;;;12.57;8.90;;;18.90;99.90;;;17.38;100.00;99675.00;10373528;28;96640;-92
2023/06/11 00:43:38;;;;;;;9.70;8.75;;;18.90;99.90;;;17.37;100.00;99675.22;10383289;28;96693;-92
2023/06/11 00:48:41;;;;;;;9.30;8.32;;;18.80;99.90;;;17.39;100.00;99673.13;10368424;28;96653;-91
2023/06/11 00:53:44;;;;;;;11.98;8.18;;;18.90;99.90;;;17.37;100.00;99675.22;10348307;28;97651;-92
2023/06/11 00:58:49;;;;;;;9.20;8.20;;;18.80;99.90;;;17.39;100.00;99673.97;10354244;28;98044;-92
2023/06/11 01:03:57;;;;;;;8.23;7.43;;;18.90;99.90;;;17.39;100.00;99673.13;10370346;28;97057;-92
2023/06/11 01:09:01;;;;;;;10.10;9.00;;;18.90;99.90;;;17.38;100.00;99672.31;10354957;28;96741;-91
2023/06/11 01:14:05;;;;;;;47.97;11.32;;;18.80;99.90;;;17.39;100.00;99679.34;10362596;28;96692;-92
2023/06/11 01:19:31;;;;;;;13.90;8.63;;;18.90;99.90;;;17.41;100.00;99664.84;10356049;28;98043;-91
2023/06/11 01:25:02;;;;;;;12.35;7.28;;;18.90;99.90;;;17.44;100.00;99661.72;10384837;28;96724;-91
2023/06/11 01:30:06;;;;;;;7.53;6.83;;;18.90;99.90;;;17.41;100.00;99654.94;10396905;28;97350;-92
2023/06/11 01:35:09;;;;;;;27.38;8.18;;;18.90;99.90;;;17.48;100.00;99660.22;10387108;28;98460;-91
2023/06/11 01:40:14;;;;;;;21.40;8.35;;;19.00;99.90;;;17.51;100.00;99662.44;10379375;28;98204;-92
2023/06/11 01:45:18;;;;;;;294.00;26.80;;;19.00;99.90;;;17.54;100.00;99672.75;10367054;28;96936;-91
2023/06/11 01:50:21;;;;;;;29.20;8.25;;;19.00;99.90;;;17.53;100.00;99673.78;10396333;28;96560;-93
2023/06/11 01:55:24;;;;;;;8.43;6.45;;;19.00;99.90;;;17.57;100.00;99680.34;10365276;28;96494;-92
2023/06/11 02:00:27;;;;;;;120.88;12.57;;;19.10;99.90;;;17.57;100.00;99675.81;10355090;28;96455;-90
2023/06/11 02:05:31;;;;;;;37.00;7.15;;;19.10;99.90;;;17.58;100.00;99682.00;10349819;28;96509;-92
2023/06/11 02:10:34;;;;;;;10.32;6.20;;;19.10;99.90;;;17.60;100.00;99685.28;10352724;28;96688;-92
2023/06/11 02:15:37;;;;;;;67.53;8.52;;;19.10;99.90;;;17.60;100.00;99688.78;10402502;28;97606;-91
2023/06/11 02:20:40;;;;;;;12.02;5.43;;;19.10;99.90;;;17.60;100.00;99674.53;10406480;28;97488;-91
2023/06/11 02:25:43;;;;;;;28.80;6.80;;;19.10;99.90;;;17.61;100.00;99676.16;10380625;28;96652;-92
2023/06/11 02:30:46;;;;;;;42.88;7.28;;;19.10;99.90;;;17.59;100.00;99687.16;10380732;28;96784;-91
2023/06/11 02:35:49;;;;;;;37.50;6.70;;;19.10;99.90;;;17.57;100.00;99681.19;10351524;28;96900;-92
2023/06/11 02:40:52;;;;;;;32.65;6.60;;;19.10;99.90;;;17.59;100.00;99684.47;10366045;28;96607;-92
2023/06/11 02:45:55;;;;;;;7.18;6.28;;;19.10;99.90;;;17.56;100.00;99690.25;10365642;28;96704;-92
2023/06/11 02:50:58;;;;;;;9.30;5.93;;;19.10;99.90;;;17.51;100.00;99681.25;10351937;28;96449;-92
2023/06/11 02:56:01;;;;;;;7.55;5.63;;;19.00;99.90;;;17.47;100.00;99688.13;10346782;28;96724;-92
2023/06/11 03:01:04;;;;;;;116.03;15.00;;;19.00;99.90;;;17.43;100.00;99692.31;10346585;28;98326;-91
2023/06/11 03:06:08;;;;;;;6.18;5.22;;;19.00;99.90;;;17.39;100.00;99687.41;10370048;28;96682;-91
2023/06/11 03:11:11;;;;;;;9.25;7.05;;;18.90;99.90;;;17.38;100.00;99692.97;10357683;28;96773;-92
2023/06/11 03:16:14;;;;;;;6.30;5.55;;;18.90;99.90;;;17.38;100.00;99701.84;10349179;28;97472;-92
2023/06/11 03:21:18;;;;;;;7.20;5.50;;;18.90;99.90;;;17.36;100.00;99700.44;10330523;28;96524;-93
2023/06/11 03:26:21;;;;;;;66.72;8.52;;;18.90;99.90;;;17.34;100.00;99699.84;10368885;28;96592;-92
2023/06/11 03:31:24;;;;;;;6.00;5.40;;;18.90;99.90;;;17.34;100.00;99703.34;10360441;28;96718;-92
2023/06/11 03:36:27;;;;;;;10.18;5.57;;;18.90;99.90;;;17.35;100.00;99707.69;10369935;28;96745;-92
2023/06/11 03:41:30;;;;;;;6.10;5.30;;;18.90;99.90;;;17.39;100.00;99713.41;10343783;28;98715;-92
2023/06/11 03:46:33;;;;;;;8.30;5.30;;;18.90;99.90;;;17.37;100.00;99710.13;10350011;28;97065;-92
2023/06/11 03:51:37;;;;;;;41.83;7.38;;;18.90;99.90;;;17.42;100.00;99714.84;10347664;28;96468;-92
2023/06/11 03:56:40;;;;;;;24.30;5.28;;;18.90;99.90;;;17.46;100.00;99713.34;10402003;28;97915;-92
2023/06/11 04:01:43;;;;;;;20.60;5.55;;;19.00;99.90;;;17.52;100.00;99707.09;10349296;28;96711;-93
2023/06/11 04:06:46;;;;;;;25.05;5.82;;;19.00;99.90;;;17.57;100.00;99715.25;10370829;28;96520;-92
2023/06/11 04:11:49;;;;;;;47.55;6.78;;;19.10;99.90;;;17.61;100.00;99705.72;10365547;28;96779;-93
2023/06/11 04:16:52;;;;;;;32.13;6.35;;;19.10;99.90;;;17.65;100.00;99717.66;10348298;28;96551;-91
2023/06/11 04:21:55;;;;;;;71.97;9.50;;;19.20;99.90;;;17.70;100.00;99711.63;10355886;28;98357;-92
2023/06/11 04:26:59;;;;;;;10.80;5.05;;;19.30;99.90;;;17.73;100.00;99713.88;10364160;28;97146;-91
2023/06/11 04:32:03;;;;;;;8.90;4.97;;;19.30;99.90;;;17.77;98.45;99715.88;10354201;28;97358;-92
2023/06/11 04:37:09;;;;;;;31.58;5.68;;;19.30;99.90;;;17.80;99.74;99719.97;10343688;28;96419;-92
2023/06/11 04:42:14;;;;;;;14.43;5.07;;;19.30;99.90;;;17.81;99.12;99714.41;10365897;28;96447;-91
2023/06/11 04:47:22;;;;;;;34.67;5.50;;;19.40;99.90;;;17.86;97.44;99721.75;10339368;28;96637;-94
2023/06/11 04:52:26;;;;;;;13.55;4.65;;;19.40;99.90;;;17.90;95.56;99715.72;10357657;28;98963;-92
2023/06/11 04:57:33;;;;;;;20.77;5.10;;;19.40;99.90;;;17.94;94.73;99723.34;10358110;28;96904;-91
2023/06/11 05:02:38;;;;;;;36.38;6.25;;;19.50;99.90;;;17.95;94.68;99712.34;10357998;28;97747;-92
2023/06/11 05:07:42;;;;;;;16.83;4.70;;;19.60;99.90;;;18.06;93.62;99718.81;10344570;28;96430;-93
2023/06/11 05:12:45;;;;;;;11.13;5.05;;;19.60;99.90;;;18.12;92.71;99707.16;10355929;28;97762;-92
2023/06/11 05:17:48;;;;;;;41.92;5.85;;;19.70;99.90;;;18.17;92.96;99718.00;10377400;28;96566;-91
2023/06/11 05:22:58;;;;;;;8.38;4.78;;;19.70;99.90;;;18.25;94.26;99722.28;10399912;28;96475;-93
2023/06/11 05:28:06;;;;;;;22.55;4.80;;;19.80;99.90;;;18.30;93.68;99712.47;10368966;28;98265;-91
2023/06/11 05:33:10;;;;;;;8.48;4.72;;;19.90;99.90;;;18.42;91.58;99723.25;10368238;28;96608;-94
2023/06/11 05:38:13;;;;;;;50.95;7.15;;;20.00;99.90;;;18.57;89.73;99733.56;10364134;28;96711;-94
2023/06/11 05:43:16;;;;;;;26.63;5.00;;;20.10;99.90;;;18.59;89.58;99723.38;10358320;28;97486;-95
2023/06/11 05:48:19;;;;;;;22.25;6.10;;;20.20;99.90;;;18.75;92.17;99728.13;10372840;28;96616;-93
2023/06/11 05:53:23;;;;;;;9.82;4.63;;;20.30;99.90;;;18.98;90.84;99724.63;10362665;28;97620;-94
2023/06/11 05:58:26;;;;;;;14.60;4.53;;;20.50;99.90;;;19.23;89.41;99721.69;10376888;28;96521;-95
2023/06/11 06:03:33;;;;;;;8.15;4.05;;;20.80;99.90;;;19.41;87.53;99724.22;10357812;28;98088;-94
2023/06/11 06:08:37;;;;;;;16.02;4.75;;;21.00;99.90;;;19.61;86.04;99729.28;10389270;28;97345;-93
2023/06/11 06:13:40;;;;;;;9.13;4.22;;;21.20;99.90;;;19.70;85.42;99733.22;10364387;28;96496;-94
2023/06/11 06:18:49;;;;;;;13.43;4.90;;;21.30;99.90;;;19.74;84.06;99726.31;10371106;28;97250;-96
2023/06/11 06:23:56;;;;;;;;;;;21.40;99.90;;;19.85;84.41;99721.94;10377007;28;98542;-93
2023/06/11 06:29:01;;;;;;;7.18;4.10;;;21.50;99.90;;;20.06;83.81;99742.00;10384924;28;97855;-94
2023/06/11 06:34:04;;;;;;;10.10;3.67;;;21.60;99.90;;;20.21;82.29;99745.00;10370582;28;97719;-93
2023/06/11 06:39:07;;;;;;;18.52;4.28;;;21.80;99.90;;;20.30;80.51;99750.81;10372604;28;96625;-96
2023/06/11 06:44:10;;;;;;;14.43;4.57;;;21.90;99.90;;;20.36;78.73;99749.03;10379225;28;96591;-90
2023/06/11 06:49:13;;;;;;;12.27;3.80;;;22.00;99.90;;;20.34;79.06;99746.59;10362531;28;98991;-93
2023/06/11 06:54:16;;;;;;;24.83;4.60;;;22.00;99.90;;;20.45;77.00;99744.84;10362918;28;96479;-91
2023/06/11 06:59:20;;;;;;;6.50;3.78;;;22.10;99.90;;;20.53;78.54;99752.59;10354869;28;96664;-92
2023/06/11 07:04:23;;;;;;;18.13;4.38;;;22.10;99.90;;;20.66;78.94;99759.56;10353437;28;97357;-94
2023/06/11 07:09:26;;;;;;;12.95;4.53;;;22.30;99.90;;;20.77;78.05;99756.78;10370556;28;96418;-91
2023/06/11 07:14:29;;;;;;;9.43;3.88;;;22.40;99.90;;;20.88;75.16;99755.06;10348430;28;96584;-92
2023/06/11 07:19:32;;;;;;;11.88;3.83;;;22.50;99.90;;;20.74;73.75;99759.16;10355293;28;96593;-93
2023/06/11 07:24:35;;;;;;;7.40;4.53;;;22.40;99.90;;;20.55;74.94;99759.38;10365458;28;97365;-93
2023/06/11 07:29:40;;;;;;;7.40;4.00;;;22.20;99.90;;;20.56;76.00;99752.09;10377646;28;96716;-94
2023/06/11 07:34:43;;;;;;;6.10;3.85;;;22.20;99.90;;;20.94;78.51;99748.69;10349825;28;96503;-92
2023/06/11 07:39:46;;;;;;;6.00;4.25;;;22.40;99.90;;;21.48;78.00;99748.94;10349192;28;96600;-91
2023/06/11 07:44:51;;;;;;;8.25;3.70;;;22.70;99.90;;;21.79;74.49;99754.75;10329274;28;96482;-92
2023/06/11 07:49:54;;;;;;;9.90;5.03;;;23.00;99.90;;;21.83;70.87;99747.75;10380418;28;96558;-92
2023/06/11 07:54:58;;;;;;;13.05;4.10;;;23.20;99.90;;;21.89;71.15;99755.69;10386881;28;96659;-92
2023/06/11 08:00:03;;;;;;;14.25;4.10;;;23.40;99.90;;;21.91;73.17;99758.94;10345387;28;96414;-92
2023/06/11 08:05:07;;;;;;;9.05;3.47;;;23.50;99.90;;;22.05;71.22;99756.66;10393781;28;96780;-90
2023/06/11 08:10:10;;;;;;;9.65;3.78;;;23.60;99.90;;;22.01;70.49;99766.38;10388317;28;96873;-93
2023/06/11 08:15:14;;;;;;;7.40;3.50;;;23.70;99.90;;;21.83;70.13;99775.63;10365841;28;96643;-94
2023/06/11 08:20:17;;;;;;;5.88;4.32;;;23.50;99.90;;;21.74;72.68;99765.50;10401295;28;96798;-92
2023/06/11 08:25:20;;;;;;;9.35;3.65;;;23.40;99.90;;;21.77;72.38;99773.09;10423394;27;96320;-94
2023/06/11 08:30:22;;;;;;;5.40;3.75;;;23.40;99.90;;;21.80;70.51;99769.91;10362546;28;96725;-92
2023/06/11 08:35:25;;;;;;;5.88;4.05;;;23.40;99.90;;;21.80;72.43;99764.50;10396269;28;97305;-93
2023/06/11 08:40:29;;;;;;;7.03;3.75;;;23.50;99.90;;;21.90;71.24;99770.03;10387306;28;96420;-94
2023/06/11 08:45:32;;;;;;;4.25;3.20;;;23.50;99.90;;;21.88;68.13;99772.97;10361301;28;97165;-92
2023/06/11 08:50:36;;;;;;;4.20;3.47;;;23.60;99.90;;;21.94;72.39;99778.44;10360350;28;96539;-91
2023/06/11 08:55:41;;;;;;;4.78;3.50;;;23.60;99.90;;;22.05;72.01;99778.31;10327704;28;96768;-92
2023/06/11 09:00:44;;;;;;;4.45;3.53;;;23.70;99.90;;;22.19;69.96;99778.78;10361414;28;96953;-94
2023/06/11 09:05:51;;;;;;;3.92;3.33;;;23.90;99.90;;;22.32;69.05;99769.44;10355740;28;96526;-93
2023/06/11 09:10:54;;;;;;;5.93;3.25;;;24.00;99.90;;;22.49;69.10;99772.88;10334693;28;96643;-93
2023/06/11 09:15:57;;;;;;;4.45;2.90;;;24.20;99.90;;;22.62;68.29;99774.31;10343647;28;96544;-93
2023/06/11 09:21:01;;;;;;;5.55;2.70;;;24.30;99.90;;;22.57;69.13;99771.56;10354419;28;96553;-94
2023/06/11 09:26:04;;;;;;;3.90;2.67;;;24.30;99.90;;;22.50;69.68;99768.25;10346486;28;96370;-91
2023/06/11 09:31:07;;;;;;;5.28;3.15;;;24.30;99.90;;;22.35;67.10;99768.91;10356337;28;96567;-94
2023/06/11 09:36:10;;;;;;;3.15;2.80;;;24.10;99.90;;;22.25;70.28;99788.59;10398839;28;96702;-94
2023/06/11 09:41:13;;;;;;;7.05;3.00;;;24.00;99.90;;;22.18;68.75;99787.94;10391380;28;96647;-91
2023/06/11 09:46:20;;;;;;;5.10;2.75;;;23.90;99.90;;;22.21;70.20;99783.94;10392051;28;96700;-92
2023/06/11 09:51:24;;;;;;;4.63;2.85;;;23.90;99.90;;;22.19;70.82;99784.19;10352425;28;97158;-93
2023/06/11 09:56:29;;;;;;;3.63;2.70;;;23.90;99.90;;;22.11;67.63;99780.03;10349218;28;96576;-91
2023/06/11 10:01:34;;;;;;;3.33;3.00;;;23.90;99.80;;;21.99;67.20;99779.31;10355808;28;96696;-96
2023/06/11 10:06:46;;;;;;;3.80;2.80;;;23.80;99.40;;;22.01;68.28;99782.59;10370703;28;96610;-93
2023/06/11 10:11:49;;;;;;;4.38;2.88;;;23.70;99.40;;;22.08;65.64;99787.81;10385479;28;96508;-95
2023/06/11 10:16:54;;;;;;;4.68;3.05;;;23.70;98.60;;;22.11;66.82;99776.50;10354639;28;96498;-96
2023/06/11 10:22:02;;;;;;;6.00;3.20;;;23.80;98.90;;;22.56;66.54;99783.47;10391971;28;96407;-95
2023/06/11 10:27:13;;;;;;;5.20;2.85;;;24.20;98.70;;;22.89;67.56;99772.41;10358215;28;96588;-92
2023/06/11 10:32:21;;;;;;;4.25;3.00;;;24.50;98.70;;;23.04;63.19;99781.75;10370294;28;96411;-93
2023/06/11 10:37:40;;;;;;;4.88;2.55;;;24.80;97.10;;;22.86;64.53;99781.03;10353270;28;96440;-91
2023/06/11 10:42:44;;;;;;;2.88;2.47;;;24.60;97.10;;;22.84;64.94;99774.22;10348293;28;96676;-93
2023/06/11 10:47:50;;;;;;;3.80;2.80;;;24.50;97.40;;;22.91;63.32;99767.56;10390831;28;96612;-93
2023/06/11 10:53:02;;;;;;;4.28;2.67;;;24.60;96.90;;;22.91;63.05;99777.56;10346313;28;96489;-94
2023/06/11 10:58:06;;;;;;;3.90;2.65;;;24.60;96.20;;;23.11;64.41;99772.31;10381786;28;96542;-95
2023/06/11 11:03:11;;;;;;;5.88;2.60;;;24.80;96.70;;;23.37;64.59;99767.03;10347354;28;96520;-93
2023/06/11 11:08:15;;;;;;;3.90;2.70;;;25.10;97.00;;;23.41;62.52;99770.88;10390643;28;96688;-92
2023/06/11 11:13:23;;;;;;;4.25;3.15;;;25.20;96.10;;;23.27;61.86;99773.22;10384555;28;96480;-91
2023/06/11 11:18:27;;;;;;;4.50;2.38;;;25.10;95.40;;;23.18;63.52;99775.59;10336553;28;96500;-94
2023/06/11 11:23:33;;;;;;;3.05;2.70;;;24.90;95.90;;;23.10;63.32;99778.00;10357542;28;97450;-93
2023/06/11 11:28:36;;;;;;;6.72;2.90;;;24.80;95.80;;;22.93;63.74;99784.38;10369794;28;96453;-94
2023/06/11 11:33:40;;;;;;;4.50;2.63;;;24.60;95.70;;;22.92;63.56;99773.78;10331160;28;96803;-91
2023/06/11 11:38:47;;;;;;;3.45;2.63;;;24.60;95.80;;;23.06;64.77;99774.16;10331696;28;96457;-95
2023/06/11 11:43:50;;;;;;;5.15;2.47;;;24.70;95.90;;;23.28;65.02;99760.50;10334788;28;97209;-92
2023/06/11 11:48:57;;;;;;;6.85;2.63;;;24.90;96.20;;;23.34;61.29;99759.44;10363844;28;96465;-91
2023/06/11 11:54:01;;;;;;;3.45;2.75;;;25.10;95.20;;;23.35;62.56;99755.66;10322282;28;97591;-93
2023/06/11 11:59:21;;;;;;;11.80;2.35;;;25.00;95.20;;;23.50;61.88;99756.53;10347361;28;96598;-95
2023/06/11 12:04:42;;;;;;;6.38;2.30;;;25.20;95.00;;;23.35;63.31;99739.38;10335558;28;96414;-93
2023/06/11 12:09:46;;;;;;;4.47;2.25;;;25.10;95.30;;;23.32;64.84;99742.59;10363158;28;96537;-96
2023/06/11 12:14:53;;;;;;;4.63;1.95;;;25.00;95.50;;;23.53;62.65;99747.06;10362262;28;96418;-95
2023/06/11 12:19:57;;;;;;;3.88;1.83;;;25.20;95.20;;;23.61;63.93;99737.59;10313069;28;96654;-93
2023/06/11 12:25:00;;;;;;;3.03;2.00;;;25.30;95.40;;;23.77;60.95;99740.16;10321133;28;96601;-95
2023/06/11 12:30:04;;;;;;;13.63;2.63;;;25.50;94.40;;;23.89;62.13;99737.19;10320641;28;96686;-92
2023/06/11 12:35:08;;;;;;;6.78;2.03;;;25.60;94.30;;;23.89;60.31;99728.25;10354306;28;96567;-95
2023/06/11 12:40:12;;;;;;;8.35;2.28;;;25.70;93.90;;;23.81;59.46;99731.47;10365215;28;96352;-96
2023/06/11 12:45:16;;;;;;;4.25;2.08;;;25.80;93.00;;;24.07;60.23;99730.47;10360386;28;97050;-96
2023/06/11 12:50:26;;;;;;;14.82;2.17;;;26.30;93.00;;;24.37;59.55;99720.78;10341095;28;96848;-93
2023/06/11 12:55:30;;;;;;;6.78;1.92;;;26.80;92.30;;;24.38;56.01;99735.97;10346302;28;96512;-95
2023/06/11 13:00:33;;;;;;;3.67;1.55;;;26.70;90.90;;;24.35;57.59;99736.50;10377305;28;96869;-94
2023/06/11 13:05:36;;;;;;;5.88;1.42;;;26.50;91.10;;;24.21;57.65;99728.84;10384753;28;96671;-93
2023/06/11 13:10:40;;;;;;;7.75;1.50;;;26.20;91.00;;;23.89;58.38;99736.38;10385608;28;96498;-91
2023/06/11 13:15:45;;;;;;;24.75;2.15;;;25.80;91.20;;;23.84;61.56;99731.75;10375275;28;96477;-93
2023/06/11 13:20:48;;;;;;;5.60;1.80;;;25.60;92.20;;;23.96;57.39;99729.63;10361549;28;96495;-93
2023/06/11 13:25:51;;;;;;;10.43;1.50;;;25.70;91.30;;;23.92;58.34;99749.41;10359340;28;96501;-95
2023/06/11 13:30:58;;;;;;;11.18;1.42;;;25.60;91.40;;;23.71;58.91;99735.78;10359677;28;96434;-93
2023/06/11 13:36:02;;;;;;;5.22;1.40;;;25.50;91.60;;;23.52;59.01;99729.16;10377503;28;97334;-93
2023/06/11 13:41:05;;;;;;;18.00;2.17;;;25.20;91.40;;;23.35;59.76;99726.63;10370206;28;96495;-92
2023/06/11 13:46:11;;;;;;;9.95;1.60;;;25.00;91.80;;;23.24;60.90;99730.38;10396801;28;96400;-96
2023/06/11 13:51:14;;;;;;;23.17;1.77;;;24.80;92.10;;;23.21;61.52;99729.00;10408068;28;96461;-93
2023/06/11 13:56:17;;;;;;;17.60;1.50;;;24.80;92.50;;;23.37;60.99;99738.03;10367144;28;96666;-94
2023/06/11 14:01:21;;;;;;;18.58;2.20;;;24.90;92.40;;;23.47;60.17;99731.84;10354788;28;96573;-93
2023/06/11 14:06:36;;;;;;;6.30;1.55;;;25.10;92.10;;;23.55;60.61;99722.38;10365444;28;96487;-96
2023/06/11 14:11:39;;;;;;;16.52;1.80;;;25.10;91.80;;;23.48;60.89;99739.72;10387241;28;96494;-93
2023/06/11 14:16:42;;;;;;;40.45;3.03;;;25.10;92.00;;;23.27;60.28;99740.72;10359662;28;96451;-93
2023/06/11 14:21:45;;;;;;;15.27;1.98;;;24.90;92.00;;;23.13;61.46;99742.22;10388475;28;96595;-95
2023/06/11 14:26:50;;;;;;;13.95;1.85;;;24.70;92.40;;;23.18;61.15;99745.78;10372766;28;96387;-94
2023/06/11 14:32:00;;;;;;;15.20;2.45;;;24.70;92.30;;;23.16;59.47;99755.28;10392351;28;96602;-91
2023/06/11 14:37:05;;;;;;;13.20;2.28;;;24.70;91.70;;;23.01;59.37;99744.31;10395487;28;96660;-96
2023/06/11 14:42:10;;;;;;;9.57;1.58;;;24.50;91.40;;;22.95;59.87;99740.75;10394505;28;96860;-95
2023/06/11 14:47:14;;;;;;;3.20;1.10;;;24.50;91.50;;;22.92;58.60;99757.53;10399295;27;96521;-95
2023/06/11 14:52:20;;;;;;;9.82;1.92;;;24.50;90.90;;;22.76;58.43;99747.63;10401490;28;96827;-95
2023/06/11 14:57:26;;;;;;;64.53;4.60;;;24.30;90.90;;;22.70;61.02;99744.88;10418016;28;96456;-96
2023/06/11 15:03:00;;;;;;;13.95;1.38;;;24.20;91.60;;;22.66;60.41;99749.16;10016791;25;96484;-96
2023/06/11 15:08:04;;;;;;;27.35;3.10;;;24.20;91.60;;;22.59;59.41;99750.44;10429522;27;96523;-96
2023/06/11 15:13:07;;;;;;;24.38;2.08;;;24.20;91.30;;;22.54;58.78;99758.53;10434058;27;96537;-96
2023/06/11 15:18:12;;;;;;;13.75;1.50;;;24.10;91.00;;;22.54;60.67;99764.75;10433499;27;96530;-96
2023/06/11 15:23:20;;;;;;;6.30;1.30;;;24.10;91.50;;;22.54;60.99;99781.00;10433238;27;96556;-95
2023/06/11 15:28:24;;;;;;;21.88;2.85;;;24.10;91.60;;;22.56;59.12;99792.41;10429843;27;96532;-94
2023/06/11 15:33:28;;;;;;;23.10;2.22;;;24.10;91.20;;;22.53;60.05;99786.69;10411810;27;96636;-95
2023/06/11 15:38:31;;;;;;;38.13;3.88;;;24.10;91.30;;;22.54;60.38;99794.53;10445248;27;97028;-96
2023/06/11 15:43:34;;;;;;;56.17;4.47;;;24.10;91.30;;;22.51;60.01;99799.66;10444622;27;96473;-93
2023/06/11 15:48:37;;;;;;;44.08;2.97;;;24.10;91.20;;;22.37;59.77;99794.66;10413035;27;96398;-94
2023/06/11 15:53:40;;;;;;;26.63;2.60;;;24.00;91.00;;;22.26;59.99;99792.13;10427511;27;97073;-93
2023/06/11 15:58:44;;;;;;;11.63;2.10;;;23.80;91.20;;;22.15;58.36;99812.81;10428039;27;96729;-92
2023/06/11 16:03:48;;;;;;;15.80;2.47;;;23.70;90.60;;;22.02;58.51;99816.69;10430916;27;96812;-93
2023/06/11 16:08:51;;;;;;;28.52;2.20;;;23.50;90.30;;;21.98;58.83;99814.75;10404485;28;96589;-93
2023/06/11 16:13:54;;;;;;;22.95;3.25;;;23.50;90.60;;;21.91;59.33;99818.47;10441985;27;96607;-94
2023/06/11 16:18:57;;;;;;;26.27;2.75;;;23.40;90.70;;;21.90;59.53;99826.84;10444056;27;96494;-94
2023/06/11 16:24:00;;;;;;;35.75;4.90;;;23.30;90.70;;;21.85;60.16;99841.09;10428486;27;96422;-95
2023/06/11 16:29:04;;;;;;;16.08;2.03;;;23.30;90.90;;;21.78;58.10;99834.25;10411955;27;96442;-94
2023/06/11 16:34:08;;;;;;;30.60;3.42;;;23.20;90.30;;;21.68;59.58;99832.22;10429017;27;96381;-95
2023/06/11 16:39:11;;;;;;;53.63;3.78;;;23.20;90.70;;;21.66;60.58;99850.59;10427897;27;96590;-92
2023/06/11 16:44:30;;;;;;;29.95;3.15;;;23.10;91.10;;;21.56;61.61;99851.25;10446113;27;96653;-94
2023/06/11 16:49:33;;;;;;;41.47;4.28;;;23.00;91.40;;;21.48;60.11;99856.28;10411241;27;96390;-88
2023/06/11 16:54:36;;;;;;;6.28;1.65;;;23.00;91.10;;;21.46;61.44;99869.19;10429737;27;96532;-93
2023/06/11 16:59:42;;;;;;;8.68;1.70;;;22.90;91.40;;;21.31;60.01;99856.28;10418310;27;96603;-95
2023/06/11 17:04:46;;;;;;;26.23;3.40;;;22.80;90.90;;;21.20;60.58;99862.53;10457416;27;97235;-92
2023/06/11 17:09:49;;;;;;;23.90;3.70;;;22.70;91.10;;;21.17;61.19;99868.44;10426586;27;98083;-95
2023/06/11 17:14:51;;;;;;;9.73;2.00;;;22.60;91.20;;;21.06;60.73;99860.19;10423398;27;97268;-93
2023/06/11 17:19:56;;;;;;;58.72;4.75;;;22.50;91.10;;;21.00;60.73;99865.75;10461679;27;96791;-93
2023/06/11 17:24:59;;;;;;;18.23;1.88;;;22.40;91.20;;;20.87;60.96;99869.56;10440039;27;96454;-95
2023/06/11 17:30:03;;;;;;;42.60;4.65;;;22.40;91.20;;;20.81;61.29;99867.81;10413487;27;96702;-93
2023/06/11 17:35:06;;;;;;;44.63;4.07;;;22.30;91.30;;;20.80;62.65;99867.00;10443845;27;96702;-94
2023/06/11 17:40:10;;;;;;;4.47;1.55;;;22.30;91.60;;;20.74;63.31;99870.66;10420790;27;96636;-92
2023/06/11 17:45:18;;;;;;;110.63;6.95;;;22.20;92.00;;;20.64;63.99;99861.59;10422580;27;96639;-92
2023/06/11 17:50:22;;;;;;;13.05;2.50;;;22.20;92.30;;;20.62;65.40;99869.91;10416516;27;96659;-93
2023/06/11 17:55:26;;;;;;;15.90;2.03;;;22.20;92.50;;;20.54;64.56;99876.53;10407836;27;96496;-92
2023/06/11 18:00:30;;;;;;;3.20;1.42;;;22.10;92.50;;;20.48;66.40;99874.78;10394731;27;96849;-93
2023/06/11 18:05:33;;;;;;;4.03;1.80;;;22.00;92.60;;;20.43;67.10;99881.94;10427677;27;96616;-93
2023/06/11 18:10:36;;;;;;;57.60;5.45;;;21.90;92.90;;;20.32;66.59;99876.31;10410485;27;96625;-94
2023/06/11 18:15:39;;;;;;;43.85;3.00;;;21.90;93.10;;;20.31;65.90;99885.47;10424910;27;96624;-93
2023/06/11 18:20:44;;;;;;;5.88;2.03;;;21.80;93.20;;;20.27;66.65;99883.50;10426972;27;96702;-93
2023/06/11 18:25:47;;;;;;;116.40;9.68;;;21.80;93.40;;;20.21;68.27;99889.84;10423104;27;97321;-92
2023/06/11 18:30:51;;;;;;;82.50;7.15;;;21.70;93.60;;;20.14;68.33;99892.69;10428605;27;96797;-92
2023/06/11 18:35:54;;;;;;;60.38;5.20;;;21.60;93.70;;;20.06;70.03;99903.84;10436860;27;96563;-92
2023/06/11 18:40:57;;;;;;;80.72;5.90;;;21.50;94.00;;;19.98;71.51;99917.69;10411985;27;98003;-92
2023/06/11 18:46:00;;;;;;;3.60;2.17;;;21.40;94.30;;;19.85;71.46;99918.78;10422290;27;96640;-92
2023/06/11 18:51:03;;;;;;;67.72;5.75;;;21.30;94.40;;;19.69;70.93;99922.16;10422605;27;96584;-92
2023/06/11 18:56:06;;;;;;;92.60;8.57;;;21.20;94.50;;;19.65;71.12;99950.63;10427802;27;97460;-91
2023/06/11 19:01:09;;;;;;;13.85;2.03;;;21.10;94.80;;;19.50;72.14;99940.28;10440466;27;96786;-92
2023/06/11 19:06:13;;;;;;;7.50;2.00;;;21.00;95.00;;;19.41;71.01;99947.88;10443719;27;98256;-92
2023/06/11 19:11:16;;;;;;;50.80;4.00;;;20.80;94.90;;;19.28;70.37;99956.16;10410374;27;96696;-91
2023/06/11 19:16:19;;;;;;;30.33;2.70;;;20.70;94.80;;;19.15;69.55;99967.13;10438559;27;96620;-92
2023/06/11 19:21:24;;;;;;;24.85;3.05;;;20.60;94.60;;;19.08;67.67;99978.00;10470943;27;97045;-89
2023/06/11 19:26:28;;;;;;;13.40;2.53;;;20.50;94.30;;;18.96;67.98;99977.97;10408716;27;96501;-92
2023/06/11 19:31:31;;;;;;;15.13;2.28;;;20.40;94.20;;;18.86;66.65;99983.06;10436021;27;96481;-91
2023/06/11 19:36:36;;;;;;;4.32;1.92;;;20.30;93.60;;;18.76;65.95;99988.16;10455846;27;96620;-92
2023/06/11 19:41:39;;;;;;;16.30;2.58;;;20.20;93.30;;;18.65;65.13;99991.56;10403688;28;96694;-91
2023/06/11 19:46:44;;;;;;;24.08;2.47;;;20.10;93.10;;;18.60;66.76;99994.97;10426697;27;97301;-91
2023/06/11 19:51:47;;;;;;;29.98;2.88;;;20.00;93.50;;;18.46;66.67;99988.06;10412217;27;96425;-91
2023/06/11 19:56:50;;;;;;;28.35;4.30;;;19.90;93.50;;;18.42;66.21;99994.97;10430126;27;96615;-90
2023/06/11 20:01:53;;;;;;;31.45;2.88;;;19.80;93.40;;;18.32;66.50;99998.16;10413272;27;96628;-91
2023/06/11 20:06:57;;;;;;;21.10;2.75;;;19.70;93.30;;;18.27;67.08;100003.38;10425804;27;97089;-87
2023/06/11 20:12:06;;;;;;;101.45;8.70;;;19.70;93.50;;;18.16;67.60;99987.97;10396761;27;96700;-88
2023/06/11 20:17:10;;;;;;;27.15;2.78;;;19.60;93.70;;;18.11;68.75;99993.19;10418546;27;98734;-87
2023/06/11 20:22:13;;;;;;;17.00;3.17;;;19.60;93.90;;;18.06;69.39;100001.13;10431923;27;98034;-88
2023/06/11 20:27:16;;;;;;;6.88;2.40;;;19.50;94.10;;;17.95;71.31;99997.28;10413443;27;96709;-89
2023/06/11 20:32:20;;;;;;;74.40;6.75;;;19.40;94.30;;;17.85;72.83;99995.09;10414601;27;96575;-88
2023/06/11 20:37:23;;;;;;;10.13;3.30;;;19.30;94.80;;;17.73;73.10;100004.91;10404401;27;96608;-88
2023/06/11 20:42:26;;;;;;;4.85;2.08;;;19.20;95.10;;;17.56;74.42;100011.84;10408795;27;98130;-88
2023/06/11 20:47:29;;;;;;;2.35;2.10;;;19.00;95.50;;;17.37;75.88;100014.44;10445547;27;97464;-89
2023/06/11 20:52:33;;;;;;;4.30;2.15;;;18.80;96.00;;;17.18;77.26;100020.75;10441538;27;96406;-88
2023/06/11 20:57:37;;;;;;;4.82;2.38;;;18.60;96.60;;;16.94;78.18;100005.41;10413523;27;98243;-89